createdAt,value
2022-10-26T00:01:09.198Z,47.67
2022-10-26T00:03:37.382Z,47.62
2022-10-26T00:06:12.667Z,47.39
2022-10-26T00:08:40.092Z,47.48
2022-10-26T00:11:07.520Z,47.86
2022-10-26T00:13:34.936Z,48.21
2022-10-26T00:16:02.464Z,48.21
2022-10-26T00:18:29.402Z,48.20
2022-10-26T00:21:02.422Z,47.90
2022-10-26T00:23:29.306Z,48.07
2022-10-26T00:25:57.477Z,48.39
2022-10-26T00:28:24.486Z,48.35
2022-10-26T00:30:51.641Z,48.02
2022-10-26T00:33:19.254Z,48.19
2022-10-26T00:35:53.434Z,48.09
2022-10-26T00:38:20.872Z,47.79
2022-10-26T00:40:48.188Z,48.49
2022-10-26T00:43:33.770Z,48.41
2022-10-26T00:46:03.308Z,48.67
2022-10-26T00:48:34.621Z,48.63
2022-10-26T00:51:07.004Z,48.47
2022-10-26T00:53:34.193Z,48.81
2022-10-26T00:56:02.339Z,48.54
2022-10-26T00:58:29.590Z,48.62
2022-10-26T01:00:56.961Z,49.12
2022-10-26T01:03:28.245Z,49.18
2022-10-26T01:05:57.836Z,49.47
2022-10-26T01:08:28.280Z,49.05
2022-10-26T01:10:58.267Z,48.80
2022-10-26T01:13:28.552Z,48.87
2022-10-26T01:16:16.909Z,48.98
2022-10-26T01:18:49.696Z,49.29
2022-10-26T01:21:19.519Z,49.15
2022-10-26T01:24:13.426Z,49.76
2022-10-26T01:26:49.128Z,49.95
2022-10-26T01:29:37.153Z,49.84
2022-10-26T01:32:14.719Z,49.68
2022-10-26T01:34:52.127Z,50.16
2022-10-26T01:37:32.217Z,50.24
2022-10-26T01:40:06.990Z,50.29
2022-10-26T01:42:37.576Z,50.22
2022-10-26T01:45:08.418Z,50.46
2022-10-26T01:47:38.233Z,50.34
2022-10-26T01:50:06.329Z,50.44
2022-10-26T01:52:33.869Z,50.58
2022-10-26T01:55:39.097Z,50.45
2022-10-26T01:58:32.381Z,50.28
2022-10-26T02:01:18.924Z,50.38
2022-10-26T02:04:08.086Z,50.30
2022-10-26T02:06:43.879Z,50.45
2022-10-26T02:09:22.617Z,50.12
2022-10-26T02:11:53.345Z,50.52
2022-10-26T02:14:33.523Z,50.57
2022-10-26T02:17:13.383Z,50.60
2022-10-26T02:19:46.138Z,50.44
2022-10-26T02:22:23.422Z,50.51
2022-10-26T02:24:52.848Z,50.15
2022-10-26T02:27:36.082Z,50.61
2022-10-26T02:30:05.040Z,50.37
2022-10-26T02:32:37.944Z,50.36
2022-10-26T02:35:06.246Z,50.50
2022-10-26T02:37:36.679Z,50.77
2022-10-26T02:40:09.226Z,50.78
2022-10-26T02:42:37.723Z,50.69
2022-10-26T02:45:10.705Z,50.38
2022-10-26T02:47:37.795Z,50.21
2022-10-26T02:50:05.068Z,50.13
2022-10-26T02:53:16.736Z,50.32
2022-10-26T02:55:49.560Z,50.42
2022-10-26T02:58:41.955Z,50.39
2022-10-26T03:01:08.941Z,50.72
2022-10-26T03:03:35.954Z,50.36
2022-10-26T03:06:02.874Z,50.20
2022-10-26T03:08:29.905Z,50.29
2022-10-26T03:10:56.813Z,50.11
2022-10-26T03:13:23.803Z,50.26
2022-10-26T03:15:50.752Z,50.57
2022-10-26T03:18:17.706Z,50.47
2022-10-26T03:20:45.880Z,50.43
2022-10-26T03:23:12.800Z,50.59
2022-10-26T03:25:39.620Z,50.33
2022-10-26T03:28:07.468Z,50.96
2022-10-26T03:30:34.486Z,50.85
2022-10-26T03:33:01.739Z,51.18
2022-10-26T03:35:28.690Z,50.90
2022-10-26T03:37:55.656Z,50.73
2022-10-26T03:40:22.546Z,50.77
2022-10-26T03:42:49.635Z,51.32
2022-10-26T03:45:16.819Z,51.01
2022-10-26T03:47:45.224Z,51.01
2022-10-26T03:50:13.794Z,50.88
2022-10-26T03:52:41.291Z,50.92
2022-10-26T03:55:09.324Z,50.87
2022-10-26T03:57:41.699Z,50.86
2022-10-26T04:00:10.318Z,50.84
2022-10-26T04:02:46.932Z,50.66
2022-10-26T04:05:15.352Z,50.88
2022-10-26T04:07:42.728Z,50.82
2022-10-26T04:10:09.958Z,51.01
2022-10-26T04:12:38.341Z,51.04
2022-10-26T04:15:07.252Z,51.03
2022-10-26T04:17:34.523Z,51.31
2022-10-26T04:20:01.477Z,51.66
2022-10-26T04:22:28.422Z,52.01
2022-10-26T04:24:55.342Z,51.65
2022-10-26T04:27:22.303Z,51.46
2022-10-26T04:29:49.398Z,51.45
2022-10-26T04:32:16.296Z,51.46
2022-10-26T04:41:28.951Z,51.09
2022-10-26T04:43:55.842Z,50.76
2022-10-26T04:46:22.755Z,50.92
2022-10-26T04:48:49.649Z,50.91
2022-10-26T04:51:16.695Z,50.87
2022-10-26T04:53:43.652Z,50.91
2022-10-26T04:56:10.604Z,50.91
2022-10-26T04:58:37.495Z,51.19
2022-10-26T05:01:04.626Z,51.28
2022-10-26T05:03:31.658Z,51.39
2022-10-26T05:05:59.761Z,51.68
2022-10-26T05:08:29.880Z,51.54
2022-10-26T05:10:57.120Z,51.66
2022-10-26T05:13:24.140Z,51.57
2022-10-26T05:15:54.491Z,51.78
2022-10-26T05:18:21.753Z,52.32
2022-10-26T05:20:50.336Z,52.66
2022-10-26T05:23:18.787Z,52.55
2022-10-26T05:25:46.547Z,53.62
2022-10-26T05:28:15.044Z,53.78
2022-10-26T05:30:44.128Z,53.94
2022-10-26T05:33:13.367Z,53.67
2022-10-26T05:35:40.847Z,54.38
2022-10-26T05:38:14.008Z,54.58
2022-10-26T05:40:48.836Z,54.85
2022-10-26T05:43:15.733Z,55.34
2022-10-26T05:45:42.760Z,55.12
2022-10-26T05:48:09.676Z,55.71
2022-10-26T05:50:36.719Z,55.71
2022-10-26T05:53:03.930Z,55.49
2022-10-26T05:55:31.197Z,56.11
2022-10-26T05:57:58.586Z,55.78
2022-10-26T06:00:28.134Z,55.64
2022-10-26T06:03:10.342Z,55.10
2022-10-26T06:05:58.885Z,55.54
2022-10-26T06:08:29.587Z,55.22
2022-10-26T06:10:59.586Z,55.43
2022-10-26T06:13:26.838Z,55.27
2022-10-26T06:16:18.440Z,55.51
2022-10-26T06:19:12.316Z,55.61
2022-10-26T06:21:59.227Z,56.97
2022-10-26T06:24:34.767Z,57.22
2022-10-26T06:27:17.057Z,56.94
2022-10-26T06:29:59.523Z,57.09
2022-10-26T06:32:26.582Z,57.37
2022-10-26T06:35:10.615Z,56.97
2022-10-26T06:37:39.096Z,56.26
2022-10-26T06:40:07.023Z,56.73
2022-10-26T06:42:34.107Z,56.77
2022-10-26T06:45:01.257Z,56.84
2022-10-26T06:47:48.772Z,56.66
2022-10-26T06:50:15.722Z,57.29
2022-10-26T06:52:51.597Z,57.75
2022-10-26T06:55:18.902Z,55.50
2022-10-26T06:57:46.214Z,54.17
2022-10-26T07:00:16.227Z,55.60
2022-10-26T07:02:43.239Z,53.24
2022-10-26T07:05:12.993Z,52.53
2022-10-26T07:07:45.734Z,52.58
2022-10-26T07:10:14.341Z,53.05
2022-10-26T07:12:41.682Z,53.55
2022-10-26T07:17:46.282Z,53.38
2022-10-26T07:20:13.952Z,53.67
2022-10-26T07:22:42.806Z,51.10
2022-10-26T07:25:11.700Z,53.35
2022-10-26T07:27:38.580Z,51.79
2022-10-26T07:30:06.150Z,52.13
2022-10-26T07:32:33.214Z,51.82
2022-10-26T07:35:00.214Z,52.55
2022-10-26T07:37:27.136Z,51.92
2022-10-26T07:39:54.109Z,50.09
2022-10-26T07:42:20.947Z,48.98
2022-10-26T07:44:47.835Z,49.71
2022-10-26T07:47:14.829Z,49.29
2022-10-26T07:49:41.644Z,49.89
2022-10-26T07:52:09.768Z,50.44
2022-10-26T07:54:36.934Z,50.34
2022-10-26T07:59:30.657Z,48.63
2022-10-26T08:01:57.595Z,49.18
2022-10-26T08:04:24.545Z,48.95
2022-10-26T08:06:51.424Z,47.08
2022-10-26T08:09:18.275Z,47.36
2022-10-26T08:11:45.189Z,47.36
2022-10-26T08:14:12.202Z,45.78
2022-10-26T08:16:40.586Z,44.95
2022-10-26T08:19:07.884Z,45.41
2022-10-26T08:21:39.789Z,45.92
2022-10-26T08:24:07.958Z,45.40
2022-10-26T08:26:34.975Z,45.59
2022-10-26T08:29:01.824Z,46.53
2022-10-26T08:31:28.803Z,46.17
2022-10-26T08:33:55.808Z,46.11
2022-10-26T08:36:27.934Z,46.03
2022-10-26T08:38:55.003Z,45.62
2022-10-26T08:41:30.648Z,45.25
2022-10-26T08:44:03.643Z,42.17
2022-10-26T08:46:45.734Z,42.56
2022-10-26T08:49:37.658Z,43.79
2022-10-26T08:52:05.865Z,43.21
2022-10-26T08:54:51.177Z,43.41
2022-10-26T08:57:38.856Z,44.11
2022-10-26T09:00:11.391Z,43.83
2022-10-26T09:02:38.324Z,43.84
2022-10-26T09:05:15.935Z,42.41
2022-10-26T09:08:12.879Z,41.77
2022-10-26T09:11:24.748Z,42.50
2022-10-26T09:14:10.185Z,41.81
2022-10-26T09:17:12.015Z,42.24
2022-10-26T09:20:09.499Z,41.52
2022-10-26T09:23:07.652Z,41.37
2022-10-26T09:25:41.830Z,41.33
2022-10-26T09:28:17.136Z,41.96
2022-10-26T09:30:45.789Z,40.54
2022-10-26T09:33:24.487Z,40.74
2022-10-26T09:35:54.345Z,40.77
2022-10-26T09:38:34.112Z,41.05
2022-10-26T09:41:10.009Z,39.83
2022-10-26T09:43:57.838Z,39.63
2022-10-26T09:46:46.720Z,39.14
2022-10-26T09:49:17.766Z,39.28
2022-10-26T09:51:46.464Z,37.96
2022-10-26T09:54:18.894Z,37.92
2022-10-26T09:56:50.293Z,37.15
2022-10-26T09:59:20.450Z,38.22
2022-10-26T10:01:47.342Z,38.28
2022-10-26T10:04:14.161Z,37.53
2022-10-26T10:06:41.460Z,38.36
2022-10-26T10:09:12.396Z,36.73
2022-10-26T10:11:44.273Z,36.82
2022-10-26T10:14:17.905Z,36.96
2022-10-26T10:16:54.959Z,38.10
2022-10-26T10:19:25.191Z,36.90
2022-10-26T10:21:55.286Z,35.60
2022-10-26T10:24:33.385Z,36.70
2022-10-26T10:27:17.933Z,36.78
2022-10-26T10:29:46.412Z,35.83
2022-10-26T10:32:21.118Z,35.28
2022-10-26T10:34:53.237Z,36.09
2022-10-26T10:37:27.742Z,35.81
2022-10-26T10:40:00.700Z,36.04
2022-10-26T10:42:32.609Z,35.33
2022-10-26T10:45:01.819Z,35.67
2022-10-26T10:47:33.621Z,35.50
2022-10-26T10:50:20.829Z,35.96
2022-10-26T10:52:48.152Z,35.80
2022-10-26T10:55:15.182Z,34.56
2022-10-26T10:57:51.414Z,35.31
2022-10-26T11:00:19.742Z,34.91
2022-10-26T11:03:23.265Z,34.42
2022-10-26T11:06:01.532Z,33.79
2022-10-26T11:08:40.425Z,34.48
2022-10-26T11:11:25.712Z,34.91
2022-10-26T11:13:55.309Z,34.62
2022-10-26T11:16:37.954Z,34.46
2022-10-26T11:19:16.783Z,34.15
2022-10-26T11:21:47.277Z,33.60
2022-10-26T11:24:32.058Z,34.40
2022-10-26T11:27:06.065Z,34.00
2022-10-26T11:30:17.953Z,33.72
2022-10-26T11:32:51.338Z,33.15
2022-10-26T11:35:20.504Z,32.44
2022-10-26T11:38:01.744Z,32.87
2022-10-26T11:40:58.767Z,33.53
2022-10-26T11:43:35.337Z,34.12
2022-10-26T11:46:20.408Z,33.00
2022-10-26T11:49:10.581Z,32.80
2022-10-26T11:51:51.961Z,32.09
2022-10-26T11:54:32.670Z,32.65
2022-10-26T11:57:01.209Z,30.56
2022-10-26T11:59:37.599Z,31.41
2022-10-26T12:02:16.404Z,32.69
2022-10-26T12:04:47.519Z,33.01
2022-10-26T12:07:46.368Z,32.74
2022-10-26T12:10:33.093Z,32.63
2022-10-26T12:13:05.979Z,34.10
2022-10-26T12:16:02.168Z,32.36
2022-10-26T12:18:57.737Z,31.50
2022-10-26T12:21:30.984Z,32.27
2022-10-26T12:24:22.143Z,33.27
2022-10-26T12:26:52.670Z,33.18
2022-10-26T12:29:31.422Z,33.84
2022-10-26T12:31:59.251Z,33.68
2022-10-26T12:34:31.943Z,34.06
2022-10-26T12:36:58.773Z,34.22
2022-10-26T12:39:40.739Z,34.81
2022-10-26T12:42:10.735Z,34.65
2022-10-26T12:45:02.098Z,35.06
2022-10-26T12:47:28.995Z,33.40
2022-10-26T12:50:22.846Z,32.41
2022-10-26T12:52:54.036Z,33.83
2022-10-26T12:55:30.542Z,34.80
2022-10-26T12:58:15.582Z,34.81
2022-10-26T13:01:07.887Z,35.66
2022-10-26T13:03:36.010Z,35.22
2022-10-26T13:06:36.716Z,35.38
2022-10-26T13:09:27.319Z,35.41
2022-10-26T13:11:56.850Z,34.65
2022-10-26T13:14:36.822Z,36.18
2022-10-26T13:17:22.225Z,36.91
2022-10-26T13:19:49.660Z,36.86
2022-10-26T13:22:20.735Z,37.59
2022-10-26T13:24:51.837Z,38.17
2022-10-26T13:27:18.658Z,38.48
2022-10-26T13:30:03.932Z,38.38
2022-10-26T13:32:35.501Z,38.49
2022-10-26T13:35:04.149Z,39.14
2022-10-26T13:37:34.151Z,39.04
2022-10-26T13:40:05.358Z,39.07
2022-10-26T13:42:48.156Z,38.87
2022-10-26T13:45:41.166Z,39.31
2022-10-26T13:48:16.964Z,39.41
2022-10-26T13:50:52.295Z,38.75
2022-10-26T13:53:37.577Z,38.98
2022-10-26T13:56:25.120Z,39.29
2022-10-26T13:59:03.716Z,39.48
2022-10-26T14:01:31.716Z,40.36
2022-10-26T14:03:58.950Z,40.25
2022-10-26T14:06:38.985Z,40.07
2022-10-26T14:09:17.152Z,40.47
2022-10-26T14:11:52.518Z,40.89
2022-10-26T14:14:24.417Z,41.63
2022-10-26T14:16:53.314Z,41.07
2022-10-26T14:19:30.167Z,42.06
2022-10-26T14:21:58.612Z,41.78
2022-10-26T14:24:45.718Z,42.14
2022-10-26T14:27:19.307Z,42.03
2022-10-26T14:30:03.752Z,42.06
2022-10-26T14:32:33.969Z,42.48
2022-10-26T14:35:01.018Z,42.29
2022-10-26T14:37:52.687Z,42.68
2022-10-26T14:40:23.341Z,42.37
2022-10-26T14:42:54.870Z,42.97
2022-10-26T14:45:30.099Z,42.46
2022-10-26T14:48:06.656Z,42.74
2022-10-26T14:50:34.674Z,42.85
2022-10-26T14:53:04.731Z,42.82
2022-10-26T14:55:43.482Z,42.68
2022-10-26T14:58:31.348Z,42.93
2022-10-26T15:01:23.228Z,43.21
2022-10-26T15:04:42.403Z,43.37
2022-10-26T15:07:16.756Z,43.36
2022-10-26T15:09:50.327Z,43.63
2022-10-26T15:12:46.091Z,43.47
2022-10-26T15:15:15.913Z,44.06
2022-10-26T15:17:55.549Z,43.82
2022-10-26T15:20:25.400Z,43.85
2022-10-26T15:22:54.770Z,43.73
2022-10-26T15:25:27.920Z,43.91
2022-10-26T15:27:55.014Z,44.11
2022-10-26T15:30:28.258Z,44.19
2022-10-26T15:32:56.233Z,44.19
2022-10-26T15:35:28.692Z,44.28
2022-10-26T15:37:57.022Z,44.29
2022-10-26T15:42:54.591Z,44.43
2022-10-26T15:45:24.575Z,44.58
2022-10-26T15:47:53.399Z,44.65
2022-10-26T15:50:26.066Z,44.81
2022-10-26T15:53:18.539Z,44.96
2022-10-26T15:55:45.500Z,44.96
2022-10-26T15:58:12.461Z,45.34
2022-10-26T16:00:39.384Z,45.42
2022-10-26T16:03:06.352Z,45.47
2022-10-26T16:05:33.291Z,45.41
2022-10-26T16:08:00.258Z,45.70
2022-10-26T16:10:27.370Z,45.59
2022-10-26T16:12:54.795Z,45.58
2022-10-26T16:15:25.238Z,45.88
2022-10-26T16:17:52.640Z,45.26
2022-10-26T16:20:23.082Z,45.05
2022-10-26T16:22:52.597Z,45.41
2022-10-26T16:25:23.710Z,46.20
2022-10-26T16:27:51.799Z,46.02
2022-10-26T16:30:19.139Z,46.15
2022-10-26T16:32:46.242Z,46.51
2022-10-26T16:35:13.809Z,46.24
2022-10-26T16:37:40.858Z,46.28
2022-10-26T16:40:09.294Z,46.20
2022-10-26T16:42:36.459Z,46.13
2022-10-26T16:45:03.995Z,46.28
2022-10-26T16:47:35.736Z,45.78
2022-10-26T16:50:04.530Z,45.58
2022-10-26T16:52:33.496Z,45.64
2022-10-26T16:55:00.484Z,45.54
2022-10-26T16:57:27.430Z,45.40
2022-10-26T16:59:54.333Z,45.67
2022-10-26T17:02:21.616Z,46.08
2022-10-26T17:04:48.587Z,46.16
2022-10-26T17:07:15.474Z,45.83
2022-10-26T17:09:42.383Z,45.66
2022-10-26T17:12:11.233Z,45.65
2022-10-26T17:14:38.323Z,47.14
2022-10-26T17:17:06.075Z,47.05
2022-10-26T17:19:33.078Z,47.34
2022-10-26T17:22:01.785Z,47.47
2022-10-26T17:24:30.785Z,47.25
2022-10-26T17:26:57.972Z,46.91
2022-10-26T17:29:24.925Z,46.61
2022-10-26T17:31:51.890Z,46.52
2022-10-26T17:34:18.835Z,46.38
2022-10-26T17:36:45.849Z,46.26
2022-10-26T17:39:12.979Z,46.30
2022-10-26T17:41:39.879Z,46.34
2022-10-26T17:44:06.762Z,46.34
2022-10-26T17:46:34.269Z,46.24
2022-10-26T17:49:01.772Z,46.14
2022-10-26T17:51:30.284Z,46.15
2022-10-26T17:53:59.185Z,45.88
2022-10-26T17:56:31.254Z,45.85
2022-10-26T17:59:00.849Z,46.25
2022-10-26T18:01:29.188Z,46.18
2022-10-26T18:03:56.379Z,46.00
2022-10-26T18:06:23.883Z,45.76
2022-10-26T18:08:51.140Z,46.09
2022-10-26T18:11:26.571Z,46.28
2022-10-26T18:13:57.646Z,46.21
2022-10-26T18:16:26.488Z,45.96
2022-10-26T18:19:02.175Z,45.93
2022-10-26T18:21:31.936Z,46.13
2022-10-26T18:23:59.728Z,45.95
2022-10-26T18:26:31.455Z,46.75
2022-10-26T18:28:59.618Z,46.83
2022-10-26T18:31:27.715Z,47.33
2022-10-26T18:33:56.571Z,47.03
2022-10-26T18:36:23.674Z,47.22
2022-10-26T18:38:50.663Z,47.24
2022-10-26T18:41:18.917Z,47.42
2022-10-26T18:43:51.068Z,48.18
2022-10-26T18:46:24.106Z,48.88
2022-10-26T18:48:55.601Z,48.61
2022-10-26T18:51:26.129Z,48.63
2022-10-26T18:53:53.053Z,49.00
2022-10-26T18:56:21.966Z,48.66
2022-10-26T18:58:51.052Z,48.93
2022-10-26T19:01:28.451Z,49.22
2022-10-26T19:04:04.716Z,48.85
2022-10-26T19:06:36.264Z,49.11
2022-10-26T19:09:04.597Z,49.10
2022-10-26T19:11:32.340Z,49.32
2022-10-26T19:13:59.627Z,49.37
2022-10-26T19:16:50.593Z,49.13
2022-10-26T19:19:18.984Z,48.96
2022-10-26T19:21:48.348Z,49.04
2022-10-26T19:24:20.728Z,48.46
2022-10-26T19:26:48.901Z,48.79
2022-10-26T19:29:17.021Z,48.70
2022-10-26T19:31:48.546Z,48.60
2022-10-26T19:34:16.691Z,48.39
2022-10-26T19:36:46.352Z,48.10
2022-10-26T19:39:17.822Z,47.94
2022-10-26T19:41:46.219Z,47.98
2022-10-26T19:44:14.749Z,48.06
2022-10-26T19:46:43.576Z,48.18
2022-10-26T19:49:10.779Z,48.27
2022-10-26T19:51:37.671Z,48.30
2022-10-26T19:54:07.300Z,48.01
2022-10-26T19:56:35.905Z,47.92
2022-10-26T19:59:03.277Z,47.81
2022-10-26T20:01:30.205Z,48.10
2022-10-26T20:03:57.428Z,47.93
2022-10-26T20:06:24.623Z,48.05
2022-10-26T20:08:51.775Z,48.22
2022-10-26T20:11:19.174Z,48.16
2022-10-26T20:13:47.549Z,48.06
2022-10-26T20:16:16.554Z,48.27
2022-10-26T20:18:47.655Z,48.21
2022-10-26T20:21:17.146Z,48.11
2022-10-26T20:23:45.131Z,48.44
2022-10-26T20:26:19.369Z,48.10
2022-10-26T20:28:51.502Z,47.88
2022-10-26T20:31:19.490Z,48.18
2022-10-26T20:33:49.689Z,48.48
2022-10-26T20:36:16.611Z,48.51
2022-10-26T20:38:43.800Z,48.81
2022-10-26T20:41:14.581Z,48.76
2022-10-26T20:43:42.733Z,48.19
2022-10-26T20:46:11.451Z,48.36
2022-10-26T20:48:38.897Z,48.42
2022-10-26T20:51:26.359Z,48.99
2022-10-26T20:54:06.532Z,48.72
2022-10-26T20:56:34.680Z,48.95
2022-10-26T20:59:04.055Z,48.89
2022-10-26T21:01:33.412Z,48.91
2022-10-26T21:04:02.601Z,49.05
2022-10-26T21:06:30.454Z,49.05
2022-10-26T21:08:57.657Z,49.02
2022-10-26T21:11:26.033Z,48.97
2022-10-26T21:13:54.112Z,48.89
2022-10-26T21:18:48.522Z,48.77
2022-10-26T21:21:15.726Z,48.52
2022-10-26T21:23:42.805Z,48.82
2022-10-26T21:26:10.339Z,49.17
2022-10-26T21:28:41.695Z,48.92
2022-10-26T21:31:13.712Z,48.71
2022-10-26T21:33:40.659Z,49.00
2022-10-26T21:36:09.861Z,49.07
2022-10-26T21:38:36.786Z,48.82
2022-10-26T21:41:07.654Z,49.13
2022-10-26T21:43:36.042Z,49.59
2022-10-26T21:46:04.014Z,49.79
2022-10-26T21:48:32.293Z,49.75
2022-10-26T21:51:02.329Z,49.90
2022-10-26T21:53:29.375Z,50.11
2022-10-26T21:56:03.516Z,50.13
2022-10-26T21:58:31.067Z,50.40
2022-10-26T22:01:06.161Z,50.40
2022-10-26T22:03:33.503Z,50.85
2022-10-26T22:06:00.865Z,50.73
2022-10-26T22:08:28.397Z,50.97
2022-10-26T22:10:56.112Z,51.49
2022-10-26T22:13:23.476Z,51.56
2022-10-26T22:16:04.890Z,51.49
2022-10-26T22:18:34.480Z,51.45
2022-10-26T22:21:01.672Z,51.20
2022-10-26T22:23:28.579Z,51.33
2022-10-26T22:26:00.957Z,51.12
2022-10-26T22:28:29.351Z,51.52
2022-10-26T22:31:01.423Z,51.18
2022-10-26T22:33:28.349Z,51.78
2022-10-26T22:35:55.229Z,51.83
2022-10-26T22:38:22.421Z,52.06
2022-10-26T22:40:56.337Z,51.85
2022-10-26T22:43:23.483Z,51.80
2022-10-26T22:46:06.797Z,51.63
2022-10-26T22:48:34.758Z,51.55
2022-10-26T22:51:20.801Z,51.32
2022-10-26T22:53:58.442Z,51.22
2022-10-26T22:58:53.626Z,51.39
2022-10-26T23:01:23.714Z,51.71
2022-10-26T23:03:52.010Z,51.48
2022-10-26T23:06:20.132Z,51.69
2022-10-26T23:08:47.208Z,51.88
2022-10-26T23:11:17.148Z,51.80
2022-10-26T23:13:44.643Z,52.17
2022-10-26T23:16:13.681Z,52.42
2022-10-26T23:18:40.655Z,52.53
2022-10-26T23:21:09.334Z,52.59
2022-10-26T23:23:36.464Z,52.55
2022-10-26T23:26:08.926Z,52.76
2022-10-26T23:28:36.796Z,52.59
2022-10-26T23:31:04.132Z,53.24
2022-10-26T23:33:31.699Z,53.16
2022-10-26T23:35:58.727Z,53.45
2022-10-26T23:38:26.262Z,53.72
2022-10-26T23:40:56.243Z,53.43
2022-10-26T23:43:23.901Z,53.44
2022-10-26T23:45:50.947Z,53.31
2022-10-26T23:48:19.387Z,53.10
2022-10-26T23:50:47.957Z,53.24
2022-10-26T23:53:16.215Z,53.21
2022-10-26T23:55:44.879Z,52.97
2022-10-26T23:58:12.183Z,53.99
